Terminal Aerodrome Forecast
Issued by NWS North Platte, NE

Home | Current Version | Previous Version | Text Only | Print | Product List | Glossary On
Versions: 1 2 3 4 5 6 7 8 9 10 11 12 13 14 15 16 17 18
000
FTUS43 KLBF 231700 RRA
TAFLBF
TAF
KLBF 231742Z 2318/2418 34026G35KT P6SM SCT180
     FM240000 32015G25KT P6SM BKN050
     FM240900 31015G25KT P6SM BKN025
     FM241600 32023G32KT P6SM SCT070=

USA.gov is the U.S. government's official web portal to all federal, state and local government web resources and services.